createdAt,value
2018-02-04T00:00:40.977Z,7.00
2018-02-04T00:03:08.396Z,7.17
2018-02-04T00:05:35.934Z,6.37
2018-02-04T00:08:03.359Z,7.43
2018-02-04T00:10:30.840Z,7.50
2018-02-04T00:12:58.607Z,6.97
2018-02-04T00:15:26.034Z,7.53
2018-02-04T00:17:53.516Z,8.07
2018-02-04T00:20:20.974Z,7.50
2018-02-04T00:22:48.402Z,7.93
2018-02-04T00:25:16.620Z,7.30
2018-02-04T00:27:44.293Z,8.00
2018-02-04T00:30:11.732Z,8.30
2018-02-04T00:32:39.156Z,7.57
2018-02-04T00:35:06.849Z,7.07
2018-02-04T00:37:34.277Z,7.77
2018-02-04T00:40:01.760Z,6.80
2018-02-04T00:42:29.194Z,7.13
2018-02-04T00:44:56.615Z,7.80
2018-02-04T00:47:24.132Z,8.27
2018-02-04T00:49:51.568Z,8.03
2018-02-04T00:52:19.000Z,7.63
2018-02-04T00:54:47.220Z,8.23
2018-02-04T00:57:14.688Z,7.47
2018-02-04T00:59:42.114Z,7.77
2018-02-04T01:02:09.592Z,8.13
2018-02-04T01:04:37.055Z,8.03
2018-02-04T01:07:04.503Z,7.90
2018-02-04T01:09:31.928Z,8.00
2018-02-04T01:12:00.131Z,7.80
2018-02-04T01:14:27.602Z,7.63
2018-02-04T01:16:55.060Z,8.63
2018-02-04T01:19:22.819Z,6.97
2018-02-04T01:21:50.236Z,7.70
2018-02-04T01:24:18.424Z,7.93
2018-02-04T01:26:45.862Z,7.83
2018-02-04T01:29:14.083Z,7.70
2018-02-04T01:31:41.526Z,8.10
2018-02-04T01:34:08.960Z,7.57
2018-02-04T01:36:36.380Z,7.13
2018-02-04T01:39:03.808Z,7.33
2018-02-04T01:41:31.483Z,6.60
2018-02-04T01:43:58.915Z,8.27
2018-02-04T01:46:26.381Z,7.37
2018-02-04T01:48:53.839Z,7.83
2018-02-04T01:51:21.248Z,8.77
2018-02-04T01:53:49.463Z,8.07
2018-02-04T01:56:16.903Z,8.13
2018-02-04T01:58:44.378Z,8.57
2018-02-04T02:01:11.783Z,7.70
2018-02-04T02:03:40.012Z,7.60
2018-02-04T02:06:07.473Z,7.97
2018-02-04T02:08:34.954Z,7.23
2018-02-04T02:11:02.620Z,8.20
2018-02-04T02:13:30.144Z,7.73
2018-02-04T02:15:57.556Z,7.73
2018-02-04T02:18:25.757Z,7.50
2018-02-04T02:20:53.182Z,7.90
2018-02-04T02:23:20.599Z,7.23
2018-02-04T02:25:48.355Z,8.03
2018-02-04T02:28:15.839Z,8.37
2018-02-04T02:30:43.264Z,7.83
2018-02-04T02:33:10.698Z,7.63
2018-02-04T02:35:38.132Z,7.93
2018-02-04T02:38:05.552Z,7.03
2018-02-04T02:40:32.991Z,8.07
2018-02-04T02:43:00.411Z,7.13
2018-02-04T02:45:28.603Z,6.73
2018-02-04T02:47:56.087Z,7.23
2018-02-04T02:50:23.513Z,6.77
2018-02-04T02:52:50.993Z,7.40
2018-02-04T02:55:18.420Z,7.07
2018-02-04T02:57:46.610Z,7.23
2018-02-04T03:00:14.040Z,7.80
2018-02-04T03:02:42.244Z,7.60
2018-02-04T03:05:09.663Z,7.33
2018-02-04T03:07:37.172Z,7.67
2018-02-04T03:10:04.579Z,7.53
2018-02-04T03:12:31.999Z,7.07
2018-02-04T03:14:59.451Z,8.17
2018-02-04T03:17:27.216Z,7.43
2018-02-04T03:19:54.697Z,8.27
2018-02-04T03:22:22.234Z,7.63
2018-02-04T03:24:49.680Z,7.63
2018-02-04T03:27:17.096Z,7.53
2018-02-04T03:29:45.316Z,7.40
2018-02-04T03:32:12.776Z,7.77
2018-02-04T03:34:40.232Z,7.03
2018-02-04T03:37:07.688Z,8.00
2018-02-04T03:39:35.452Z,6.93
2018-02-04T03:42:02.881Z,7.17
2018-02-04T03:44:30.307Z,7.77
2018-02-04T03:46:57.823Z,7.03
2018-02-04T03:49:25.253Z,7.00
2018-02-04T03:51:53.452Z,7.73
2018-02-04T03:54:20.921Z,6.73
2018-02-04T03:56:48.344Z,6.93
2018-02-04T03:59:15.824Z,6.67
2018-02-04T04:01:43.260Z,7.03
2018-02-04T04:04:10.691Z,6.77
2018-02-04T04:06:38.890Z,7.17
2018-02-04T04:09:06.583Z,7.37
2018-02-04T04:11:34.027Z,6.67
2018-02-04T04:14:01.448Z,6.57
2018-02-04T04:16:29.648Z,7.53
2018-02-04T04:18:57.076Z,7.07
2018-02-04T04:21:25.275Z,7.17
2018-02-04T04:23:52.716Z,7.00
2018-02-04T04:26:20.921Z,7.33
2018-02-04T04:28:48.398Z,7.13
2018-02-04T04:31:16.152Z,7.23
2018-02-04T04:33:43.607Z,6.80
2018-02-04T04:36:11.040Z,7.20
2018-02-04T04:38:38.522Z,7.63
2018-02-04T04:41:05.979Z,6.60
2018-02-04T04:43:33.412Z,7.70
2018-02-04T04:46:01.138Z,7.03
2018-02-04T04:48:28.560Z,7.07
2018-02-04T04:50:55.984Z,7.23
2018-02-04T04:53:23.468Z,7.40
2018-02-04T04:55:50.922Z,6.43
2018-02-04T04:58:18.347Z,6.83
2018-02-04T05:00:46.866Z,6.63
2018-02-04T05:03:14.295Z,7.13
2018-02-04T05:05:41.721Z,7.20
2018-02-04T05:08:09.236Z,7.30
2018-02-04T05:10:36.665Z,7.53
2018-02-04T05:13:04.148Z,7.37
2018-02-04T05:15:31.926Z,7.13
2018-02-04T05:17:59.376Z,7.60
2018-02-04T05:20:26.834Z,7.23
2018-02-04T05:22:54.284Z,7.57
2018-02-04T05:25:21.705Z,7.77
2018-02-04T05:27:49.911Z,6.57
2018-02-04T05:30:17.340Z,7.47
2018-02-04T05:32:45.528Z,7.27
2018-02-04T05:35:12.950Z,7.00
2018-02-04T05:37:40.664Z,6.73
2018-02-04T05:40:08.124Z,8.10
2018-02-04T05:42:35.608Z,6.57
2018-02-04T05:45:03.344Z,6.97
2018-02-04T05:47:30.768Z,7.50
2018-02-04T05:49:58.959Z,7.63
2018-02-04T05:52:26.435Z,7.43
2018-02-04T05:54:53.869Z,7.77
2018-02-04T05:57:21.290Z,7.23
2018-02-04T05:59:49.009Z,6.37
2018-02-04T06:02:16.613Z,7.33
2018-02-04T06:04:44.040Z,6.47
2018-02-04T06:07:11.478Z,7.33
2018-02-04T06:09:38.899Z,7.20
2018-02-04T06:12:07.092Z,6.40
2018-02-04T06:14:34.589Z,6.60
2018-02-04T06:17:02.052Z,7.33
2018-02-04T06:19:29.585Z,6.90
2018-02-04T06:21:57.228Z,7.33
2018-02-04T06:24:24.652Z,6.83
2018-02-04T06:26:52.079Z,6.40
2018-02-04T06:29:19.515Z,6.20
2018-02-04T06:31:46.940Z,5.97
2018-02-04T06:34:15.129Z,6.07
2018-02-04T06:36:42.811Z,6.07
2018-02-04T06:39:10.271Z,5.30
2018-02-04T06:41:37.688Z,5.83
2018-02-04T06:44:05.892Z,5.67
2018-02-04T06:46:33.360Z,5.17
2018-02-04T06:49:00.811Z,5.47
2018-02-04T06:51:28.270Z,5.03
2018-02-04T06:53:55.732Z,4.70
2018-02-04T06:56:23.187Z,4.93
2018-02-04T06:58:50.651Z,5.23
2018-02-04T07:01:18.099Z,4.67
2018-02-04T07:03:45.523Z,4.90
2018-02-04T07:06:13.736Z,4.63
2018-02-04T07:08:41.160Z,4.50
2018-02-04T07:11:09.365Z,4.57
2018-02-04T07:13:37.128Z,4.63
2018-02-04T07:16:04.581Z,5.27
2018-02-04T07:18:32.044Z,5.00
2018-02-04T07:20:59.884Z,5.63
2018-02-04T07:23:27.346Z,5.23
2018-02-04T07:25:54.792Z,4.10
2018-02-04T07:28:23.224Z,5.00
2018-02-04T07:30:50.684Z,4.70
2018-02-04T07:33:18.108Z,4.53
2018-02-04T07:35:45.578Z,4.27
2018-02-04T07:38:13.004Z,4.67
2018-02-04T07:40:40.488Z,4.30
2018-02-04T07:43:08.251Z,4.80
2018-02-04T07:45:35.715Z,4.13
2018-02-04T07:48:03.135Z,4.53
2018-02-04T07:50:31.340Z,4.03
2018-02-04T07:52:58.762Z,4.13
2018-02-04T07:55:27.044Z,4.60
2018-02-04T07:57:55.248Z,3.80
2018-02-04T08:00:22.672Z,4.00
2018-02-04T08:02:50.893Z,3.67
2018-02-04T08:05:18.648Z,4.23
2018-02-04T08:07:46.072Z,4.10
2018-02-04T08:10:13.502Z,4.53
2018-02-04T08:12:41.237Z,4.40
2018-02-04T08:15:08.686Z,4.43
2018-02-04T08:17:36.104Z,4.00
2018-02-04T08:20:04.418Z,3.83
2018-02-04T08:22:31.839Z,3.80
2018-02-04T08:24:59.448Z,3.50
2018-02-04T08:27:27.123Z,3.60
2018-02-04T08:29:54.611Z,3.97
2018-02-04T08:32:22.828Z,4.00
2018-02-04T08:34:50.600Z,3.63
2018-02-04T08:37:18.040Z,3.80
2018-02-04T08:39:45.512Z,3.70
2018-02-04T08:42:13.079Z,3.83
2018-02-04T08:44:40.520Z,3.77
2018-02-04T08:47:07.943Z,3.67
2018-02-04T08:49:36.460Z,3.67
2018-02-04T08:52:03.884Z,3.63
2018-02-04T08:54:32.082Z,3.57
2018-02-04T08:56:59.565Z,4.00
2018-02-04T08:59:26.968Z,4.00
2018-02-04T09:01:55.179Z,3.73
2018-02-04T09:04:22.735Z,3.70
2018-02-04T09:06:50.169Z,4.20
2018-02-04T09:09:17.655Z,5.07
2018-02-04T09:11:45.103Z,3.80
2018-02-04T09:14:12.524Z,4.73
2018-02-04T09:16:40.738Z,5.90
2018-02-04T09:19:08.197Z,6.83
2018-02-04T09:21:35.656Z,5.60
2018-02-04T09:24:03.112Z,4.17
2018-02-04T09:26:30.549Z,4.40
2018-02-04T09:28:57.973Z,4.33
2018-02-04T09:31:25.492Z,5.37
2018-02-04T09:33:53.024Z,4.93
2018-02-04T09:36:20.443Z,4.17
2018-02-04T09:38:47.864Z,5.87
2018-02-04T09:41:15.715Z,5.40
2018-02-04T09:43:43.182Z,4.17
2018-02-04T09:46:10.643Z,6.77
2018-02-04T09:48:38.092Z,4.10
2018-02-04T09:51:05.592Z,4.97
2018-02-04T09:53:33.016Z,6.20
2018-02-04T09:56:00.454Z,5.57
2018-02-04T09:58:27.928Z,9.13
2018-02-04T10:00:55.361Z,5.57
2018-02-04T10:03:22.844Z,5.10
2018-02-04T10:05:50.319Z,4.77
2018-02-04T10:08:17.725Z,4.60
2018-02-04T10:10:45.520Z,3.43
2018-02-04T10:13:12.976Z,3.20
2018-02-04T10:15:40.428Z,3.70
2018-02-04T10:18:08.176Z,3.23
2018-02-04T10:20:35.652Z,3.00
2018-02-04T10:23:03.083Z,3.10
2018-02-04T10:25:30.771Z,3.10
2018-02-04T10:27:58.198Z,3.67
2018-02-04T10:30:26.386Z,3.73
2018-02-04T10:32:53.867Z,3.27
2018-02-04T10:35:21.248Z,3.30
2018-02-04T10:37:48.692Z,3.90
2018-02-04T10:40:16.227Z,3.63
2018-02-04T10:42:43.852Z,3.67
2018-02-04T10:45:11.256Z,3.47
2018-02-04T10:47:38.937Z,3.17
2018-02-04T10:50:06.372Z,3.23
2018-02-04T10:52:33.788Z,3.33
2018-02-04T10:55:01.512Z,3.43
2018-02-04T10:57:28.969Z,3.70
2018-02-04T10:59:56.436Z,3.27
2018-02-04T11:02:23.880Z,3.20
2018-02-04T11:04:51.344Z,3.47
2018-02-04T11:07:18.768Z,3.50
2018-02-04T11:09:46.256Z,3.77
2018-02-04T11:12:13.697Z,3.60
2018-02-04T11:14:41.129Z,4.00
2018-02-04T11:17:09.572Z,3.57
2018-02-04T11:19:36.999Z,3.70
2018-02-04T11:22:04.421Z,3.53
2018-02-04T11:24:32.636Z,3.83
2018-02-04T11:27:00.061Z,4.00
2018-02-04T11:29:27.484Z,3.60
2018-02-04T11:31:54.964Z,3.80
2018-02-04T11:34:23.154Z,3.80
2018-02-04T11:36:50.604Z,3.93
2018-02-04T11:39:18.099Z,4.00
2018-02-04T11:41:45.561Z,3.93
2018-02-04T11:44:12.980Z,3.73
2018-02-04T11:46:40.692Z,4.47
2018-02-04T11:49:08.104Z,4.10
2018-02-04T11:51:35.544Z,4.10
2018-02-04T11:54:04.064Z,3.43
2018-02-04T11:56:31.493Z,3.70
2018-02-04T11:58:58.927Z,4.13
2018-02-04T12:01:26.691Z,3.77
2018-02-04T12:03:54.157Z,4.03
2018-02-04T12:06:22.348Z,3.90
2018-02-04T12:08:49.834Z,4.50
2018-02-04T12:11:17.293Z,3.73
2018-02-04T12:13:44.724Z,3.67
2018-02-04T12:16:12.164Z,4.10
2018-02-04T12:18:40.362Z,4.47
2018-02-04T12:21:07.780Z,4.27
2018-02-04T12:23:35.221Z,3.90
2018-02-04T12:26:02.756Z,4.87
2018-02-04T12:28:30.180Z,5.37
2018-02-04T12:30:57.868Z,5.27
2018-02-04T12:33:25.457Z,6.13
2018-02-04T12:35:52.884Z,5.20
2018-02-04T12:38:20.653Z,4.63
2018-02-04T12:40:48.112Z,8.27
2018-02-04T12:43:15.556Z,8.07
2018-02-04T12:45:42.985Z,8.07
2018-02-04T12:48:11.172Z,7.10
2018-02-04T12:50:38.596Z,5.17
2018-02-04T12:53:06.112Z,5.83
2018-02-04T12:55:33.547Z,3.83
2018-02-04T12:58:01.020Z,5.33
2018-02-04T13:00:28.647Z,3.90
2018-02-04T13:02:56.843Z,6.30
2018-02-04T13:05:24.261Z,5.37
2018-02-04T13:07:51.692Z,4.63
2018-02-04T13:10:19.144Z,3.60
2018-02-04T13:12:46.561Z,7.20
2018-02-04T13:15:14.266Z,3.63
2018-02-04T13:17:41.712Z,4.53
2018-02-04T13:20:09.141Z,3.77
2018-02-04T13:22:36.615Z,3.63
2018-02-04T13:25:04.076Z,3.93
2018-02-04T13:27:31.532Z,4.87
2018-02-04T13:29:58.993Z,4.00
2018-02-04T13:32:26.436Z,4.50
2018-02-04T13:34:54.743Z,5.47
2018-02-04T13:37:22.488Z,4.10
2018-02-04T13:39:49.912Z,3.87
2018-02-04T13:42:18.096Z,4.23
2018-02-04T13:44:45.782Z,3.90
2018-02-04T13:47:13.208Z,4.27
2018-02-04T13:49:41.396Z,4.27
2018-02-04T13:52:08.839Z,3.40
2018-02-04T13:54:37.033Z,3.50
2018-02-04T13:57:04.500Z,4.13
2018-02-04T13:59:31.960Z,4.50
2018-02-04T14:01:59.384Z,4.07
2018-02-04T14:04:26.873Z,4.47
2018-02-04T14:06:54.312Z,4.17
2018-02-04T14:09:21.732Z,4.47
2018-02-04T14:11:49.152Z,4.43
2018-02-04T14:14:16.605Z,4.00
2018-02-04T14:16:44.033Z,4.57
2018-02-04T14:19:11.447Z,4.30
2018-02-04T14:21:39.996Z,4.40
2018-02-04T14:24:07.504Z,4.40
2018-02-04T14:26:35.721Z,4.97
2018-02-04T14:29:03.293Z,4.40
2018-02-04T14:31:30.752Z,4.53
2018-02-04T14:33:58.177Z,5.03
2018-02-04T14:36:25.864Z,4.40
2018-02-04T14:38:53.294Z,4.83
2018-02-04T14:41:21.476Z,4.53
2018-02-04T14:43:49.176Z,4.80
2018-02-04T14:46:16.710Z,4.50
2018-02-04T14:48:44.972Z,5.10
2018-02-04T14:51:12.456Z,5.40
2018-02-04T14:53:39.912Z,4.27
2018-02-04T14:56:07.389Z,4.60
2018-02-04T14:58:34.832Z,5.27
2018-02-04T15:01:02.260Z,4.97
2018-02-04T15:03:29.739Z,5.30
2018-02-04T15:05:57.168Z,4.77
2018-02-04T15:08:24.647Z,4.87
2018-02-04T15:10:52.111Z,4.37
2018-02-04T15:13:19.548Z,5.70
2018-02-04T15:15:47.064Z,5.73
2018-02-04T15:18:14.504Z,5.47
2018-02-04T15:20:41.940Z,5.47
2018-02-04T15:23:09.364Z,5.33
2018-02-04T15:25:37.557Z,5.47
2018-02-04T15:28:05.028Z,6.23
2018-02-04T15:30:32.668Z,5.33
2018-02-04T15:33:00.142Z,5.37
2018-02-04T15:35:27.604Z,5.43
2018-02-04T15:37:55.066Z,5.13
2018-02-04T15:40:22.484Z,5.73
2018-02-04T15:42:50.080Z,6.33
2018-02-04T15:45:17.508Z,6.27
2018-02-04T15:47:44.990Z,6.50
2018-02-04T15:50:12.763Z,6.27
2018-02-04T15:52:40.424Z,5.70
2018-02-04T15:55:07.847Z,5.77
2018-02-04T15:57:35.335Z,7.07
2018-02-04T16:00:02.762Z,6.70
2018-02-04T16:02:30.179Z,6.60
2018-02-04T16:04:57.611Z,6.07
2018-02-04T16:07:25.068Z,7.37
2018-02-04T16:09:52.492Z,7.07
2018-02-04T16:12:20.180Z,6.93
2018-02-04T16:14:47.612Z,8.27
2018-02-04T16:17:15.044Z,7.60
2018-02-04T16:19:42.652Z,6.93
2018-02-04T16:22:10.113Z,9.90
2018-02-04T16:24:37.577Z,11.23
2018-02-04T16:27:05.019Z,8.80
2018-02-04T16:29:32.482Z,9.00
2018-02-04T16:31:59.916Z,7.90
2018-02-04T16:34:27.359Z,7.27
2018-02-04T16:36:55.568Z,6.70
2018-02-04T16:39:23.024Z,7.00
2018-02-04T16:41:50.488Z,8.00
2018-02-04T16:44:17.934Z,7.37
2018-02-04T16:46:45.344Z,7.27
2018-02-04T16:49:13.548Z,7.73
2018-02-04T16:51:40.984Z,8.33
2018-02-04T16:54:09.215Z,10.00
2018-02-04T16:56:36.671Z,8.80
2018-02-04T16:59:04.120Z,9.10
2018-02-04T17:01:31.553Z,9.00
2018-02-04T17:03:59.037Z,7.63
2018-02-04T17:06:26.470Z,10.03
2018-02-04T17:08:53.966Z,10.80
2018-02-04T17:11:21.430Z,10.17
2018-02-04T17:13:48.859Z,9.80
2018-02-04T17:16:16.350Z,10.00
2018-02-04T17:18:43.803Z,15.93
2018-02-04T17:21:11.230Z,19.43
2018-02-04T17:23:38.737Z,14.70
2018-02-04T17:26:06.137Z,18.93
2018-02-04T17:28:33.604Z,15.20
2018-02-04T17:31:01.045Z,9.30
2018-02-04T17:33:28.481Z,9.30
2018-02-04T17:35:56.696Z,10.57
2018-02-04T17:38:24.132Z,9.97
2018-02-04T17:40:51.812Z,10.10
2018-02-04T17:43:19.243Z,9.67
2018-02-04T17:45:46.728Z,10.23
2018-02-04T17:48:14.537Z,10.27
2018-02-04T17:50:41.968Z,12.43
2018-02-04T17:53:09.400Z,11.20
2018-02-04T17:55:37.078Z,10.40
2018-02-04T17:58:04.500Z,12.23
2018-02-04T18:00:31.923Z,10.27
2018-02-04T18:02:59.360Z,11.27
2018-02-04T18:05:26.803Z,10.87
2018-02-04T18:07:54.270Z,10.23
2018-02-04T18:10:21.704Z,10.07
2018-02-04T18:12:49.136Z,11.40
2018-02-04T18:15:16.564Z,11.63
2018-02-04T18:17:44.294Z,11.30
2018-02-04T18:20:11.733Z,10.63
2018-02-04T18:22:39.148Z,10.47
2018-02-04T18:25:07.584Z,10.17
2018-02-04T18:27:35.144Z,10.23
2018-02-04T18:30:02.600Z,10.40
2018-02-04T18:32:30.356Z,11.97
2018-02-04T18:34:57.788Z,10.50
2018-02-04T18:37:25.289Z,10.57
2018-02-04T18:39:52.837Z,10.70
2018-02-04T18:42:20.264Z,10.30
2018-02-04T18:44:47.703Z,11.13
2018-02-04T18:47:15.954Z,10.60
2018-02-04T18:49:43.373Z,10.47
2018-02-04T18:52:10.808Z,10.43
2018-02-04T18:54:38.600Z,10.23
2018-02-04T18:57:06.052Z,10.13
2018-02-04T18:59:33.484Z,10.50
2018-02-04T19:02:01.176Z,11.47
2018-02-04T19:04:28.632Z,9.33
2018-02-04T19:06:56.071Z,10.93
2018-02-04T19:09:23.870Z,10.73
2018-02-04T19:11:51.303Z,9.73
2018-02-04T19:14:18.742Z,9.73
2018-02-04T19:16:46.242Z,11.13
2018-02-04T19:19:13.684Z,15.00
2018-02-04T19:21:41.172Z,13.97
2018-02-04T19:24:08.643Z,11.37
2018-02-04T19:26:36.079Z,14.60
2018-02-04T19:29:03.495Z,12.60
2018-02-04T19:31:31.280Z,11.60
2018-02-04T19:33:58.736Z,12.50
2018-02-04T19:36:26.192Z,11.77
2018-02-04T19:38:53.657Z,10.10
2018-02-04T19:41:21.108Z,11.07
2018-02-04T19:43:48.662Z,11.10
2018-02-04T19:46:16.334Z,10.60
2018-02-04T19:48:43.799Z,11.07
2018-02-04T19:51:11.237Z,12.17
2018-02-04T19:53:38.677Z,9.77
2018-02-04T19:56:06.152Z,9.93
2018-02-04T19:58:33.592Z,11.13
2018-02-04T20:01:01.036Z,11.23
2018-02-04T20:03:28.464Z,10.23
2018-02-04T20:05:56.672Z,11.00
2018-02-04T20:08:24.160Z,9.87
2018-02-04T20:10:51.628Z,11.20
2018-02-04T20:13:19.075Z,11.03
2018-02-04T20:15:46.517Z,10.80
2018-02-04T20:18:13.951Z,11.27
2018-02-04T20:20:44.782Z,11.23
2018-02-04T20:23:12.796Z,11.43
2018-02-04T20:25:40.240Z,11.53
2018-02-04T20:28:07.663Z,11.03
2018-02-04T20:30:36.199Z,10.80
2018-02-04T20:33:15.724Z,10.70
2018-02-04T20:35:43.491Z,10.03
2018-02-04T20:38:10.979Z,10.40
2018-02-04T20:40:38.397Z,11.53
2018-02-04T20:43:06.176Z,10.43
2018-02-04T20:45:33.624Z,10.10
2018-02-04T20:48:01.056Z,11.90
2018-02-04T20:50:28.724Z,10.93
2018-02-04T20:52:56.184Z,12.93
2018-02-04T20:55:24.377Z,11.83
2018-02-04T20:57:52.070Z,12.23
2018-02-04T21:00:19.518Z,12.67
2018-02-04T21:02:46.987Z,11.87
2018-02-04T21:05:14.740Z,12.70
2018-02-04T21:07:42.170Z,12.27
2018-02-04T21:10:09.600Z,12.63
2018-02-04T21:12:38.112Z,11.70
2018-02-04T21:15:05.550Z,11.90
2018-02-04T21:17:32.972Z,11.83
2018-02-04T21:20:01.194Z,11.57
2018-02-04T21:22:28.619Z,12.30
2018-02-04T21:24:56.868Z,12.00
2018-02-04T21:27:24.415Z,13.70
2018-02-04T21:29:51.950Z,11.80
2018-02-04T21:32:19.402Z,11.93
2018-02-04T21:34:47.068Z,11.20
2018-02-04T21:37:14.500Z,11.10
2018-02-04T21:39:41.932Z,11.77
2018-02-04T21:42:09.660Z,11.13
2018-02-04T21:44:37.111Z,12.07
2018-02-04T21:47:04.569Z,11.73
2018-02-04T21:49:32.024Z,11.70
2018-02-04T21:51:59.448Z,11.63
2018-02-04T21:54:26.939Z,11.80
2018-02-04T21:56:54.728Z,11.77
2018-02-04T21:59:22.157Z,11.43
2018-02-04T22:01:49.592Z,13.67
2018-02-04T22:04:17.277Z,14.30
2018-02-04T22:06:44.733Z,14.53
2018-02-04T22:09:12.190Z,13.33
2018-02-04T22:11:39.638Z,12.43
2018-02-04T22:14:07.102Z,11.83
2018-02-04T22:16:34.537Z,13.47
2018-02-04T22:19:02.228Z,12.37
2018-02-04T22:21:29.668Z,12.93
2018-02-04T22:23:57.101Z,13.13
2018-02-04T22:26:24.799Z,12.10
2018-02-04T22:28:52.300Z,12.50
2018-02-04T22:31:19.825Z,11.97
2018-02-04T22:33:47.267Z,11.60
2018-02-04T22:36:14.731Z,12.40
2018-02-04T22:38:42.159Z,12.43
2018-02-04T22:41:09.604Z,11.03
2018-02-04T22:43:37.820Z,11.43
2018-02-04T22:46:05.252Z,11.80
2018-02-04T22:48:33.040Z,11.50
2018-02-04T22:51:00.504Z,13.20
2018-02-04T22:53:27.932Z,12.03
2018-02-04T22:55:55.740Z,12.33
2018-02-04T22:58:23.168Z,12.13
2018-02-04T23:00:50.606Z,12.27
2018-02-04T23:03:18.045Z,11.47
2018-02-04T23:05:46.274Z,12.53
2018-02-04T23:08:13.709Z,12.17
2018-02-04T23:10:41.484Z,12.73
2018-02-04T23:13:08.959Z,13.00
2018-02-04T23:15:36.397Z,11.90
2018-02-04T23:18:03.872Z,11.97
2018-02-04T23:20:31.352Z,12.40
2018-02-04T23:22:58.773Z,12.53
2018-02-04T23:25:26.537Z,13.03
2018-02-04T23:27:53.974Z,12.87
2018-02-04T23:30:21.391Z,12.80
2018-02-04T23:32:49.110Z,13.67
2018-02-04T23:35:16.542Z,12.03
2018-02-04T23:37:44.030Z,12.37
2018-02-04T23:40:11.712Z,13.53
2018-02-04T23:42:39.276Z,13.17
2018-02-04T23:45:06.808Z,12.83
2018-02-04T23:47:34.612Z,12.43
2018-02-04T23:50:02.156Z,12.37
2018-02-04T23:52:29.588Z,13.57
2018-02-04T23:54:57.356Z,13.57
2018-02-04T23:57:24.812Z,13.60
2018-02-04T23:59:52.243Z,13.57
